createdAt,value
2022-11-04T00:03:33.208Z,1.30
2022-11-04T00:06:02.746Z,1.30
2022-11-04T00:08:31.553Z,1.40
2022-11-04T00:11:20.198Z,1.20
2022-11-04T00:13:49.268Z,1.40
2022-11-04T00:16:36.419Z,1.30
2022-11-04T00:19:05.247Z,1.50
2022-11-04T00:21:52.447Z,1.70
2022-11-04T00:24:49.986Z,1.80
2022-11-04T00:27:39.787Z,1.60
2022-11-04T00:30:11.526Z,1.40
2022-11-04T00:32:58.685Z,1.70
2022-11-04T00:35:27.377Z,1.70
2022-11-04T00:37:56.310Z,1.90
2022-11-04T00:40:25.122Z,1.80
2022-11-04T00:45:22.844Z,2.30
2022-11-04T00:47:51.776Z,1.90
2022-11-04T00:52:49.365Z,1.40
2022-11-04T00:57:46.780Z,2.20
2022-11-04T01:00:16.879Z,1.40
2022-11-04T01:02:45.776Z,1.70
2022-11-04T01:05:16.716Z,1.90
2022-11-04T01:07:45.763Z,1.90
2022-11-04T01:10:14.974Z,1.70
2022-11-04T01:12:43.924Z,1.70
2022-11-04T01:15:13.055Z,1.80
2022-11-04T01:17:45.264Z,1.50
2022-11-04T01:20:14.478Z,1.60
2022-11-04T01:22:43.565Z,1.90
2022-11-04T01:25:12.826Z,1.40
2022-11-04T01:27:42.262Z,2.30
2022-11-04T01:30:12.549Z,1.90
2022-11-04T01:32:44.507Z,2.00
2022-11-04T01:35:13.532Z,1.70
2022-11-04T01:37:43.018Z,2.10
2022-11-04T01:40:13.238Z,1.20
2022-11-04T01:42:42.526Z,2.20
2022-11-04T01:45:17.099Z,1.70
2022-11-04T01:48:05.234Z,2.10
2022-11-04T01:50:36.921Z,1.90
2022-11-04T01:53:40.920Z,1.60
2022-11-04T01:58:49.085Z,1.50
2022-11-04T02:01:19.621Z,1.60
2022-11-04T02:04:21.836Z,1.60
2022-11-04T02:06:53.940Z,1.50
2022-11-04T02:09:25.160Z,0.90
2022-11-04T02:12:12.549Z,1.40
2022-11-04T02:14:48.377Z,1.40
2022-11-04T02:17:36.377Z,1.00
2022-11-04T02:20:29.297Z,1.30
2022-11-04T02:23:27.184Z,1.10
2022-11-04T02:26:21.303Z,1.00
2022-11-04T02:29:31.606Z,1.30
2022-11-04T02:32:03.603Z,1.20
2022-11-04T02:34:38.635Z,1.40
2022-11-04T02:37:12.175Z,1.40
2022-11-04T02:40:10.168Z,1.30
2022-11-04T02:42:48.991Z,1.40
2022-11-04T02:45:34.381Z,1.50
2022-11-04T02:48:14.926Z,1.60
2022-11-04T02:51:24.191Z,1.30
2022-11-04T02:54:04.353Z,1.10
2022-11-04T02:56:38.148Z,1.70
2022-11-04T02:59:34.373Z,1.40
2022-11-04T03:02:27.695Z,1.60
2022-11-04T03:04:59.210Z,1.70
2022-11-04T03:07:32.735Z,0.80
2022-11-04T03:10:08.765Z,1.40
2022-11-04T03:12:48.761Z,1.40
2022-11-04T03:15:23.637Z,1.30
2022-11-04T03:20:34.348Z,1.40
2022-11-04T03:23:03.444Z,1.20
2022-11-04T03:25:43.860Z,1.30
2022-11-04T03:28:51.929Z,1.60
2022-11-04T03:31:26.905Z,0.80
2022-11-04T03:33:56.893Z,1.30
2022-11-04T03:36:26.411Z,1.50
2022-11-04T03:38:55.401Z,1.70
2022-11-04T03:43:58.732Z,1.30
2022-11-04T03:46:28.583Z,1.30
2022-11-04T03:49:01.067Z,1.40
2022-11-04T03:51:29.998Z,1.50
2022-11-04T03:56:35.297Z,1.20
2022-11-04T03:59:34.039Z,1.20
2022-11-04T04:02:28.326Z,1.30
2022-11-04T04:05:02.644Z,1.70
2022-11-04T04:08:16.068Z,1.60
2022-11-04T04:11:02.969Z,1.80
2022-11-04T04:13:43.632Z,1.70
2022-11-04T04:19:00.080Z,1.40
2022-11-04T04:21:53.436Z,1.90
2022-11-04T04:24:45.814Z,1.00
2022-11-04T04:30:15.964Z,1.40
2022-11-04T04:32:47.978Z,1.50
2022-11-04T04:35:36.197Z,1.60
2022-11-04T04:38:26.981Z,1.40
2022-11-04T04:41:24.009Z,1.50
2022-11-04T04:44:11.386Z,1.40
2022-11-04T04:46:43.369Z,1.40
2022-11-04T04:49:12.591Z,1.50
2022-11-04T04:51:48.171Z,1.10
2022-11-04T04:54:17.078Z,1.10
2022-11-04T04:59:18.118Z,1.60
2022-11-04T05:01:47.085Z,1.40
2022-11-04T05:04:16.176Z,1.30
2022-11-04T05:06:45.498Z,1.10
2022-11-04T05:09:14.453Z,1.10
2022-11-04T05:14:12.154Z,0.70
2022-11-04T05:19:10.592Z,1.20
2022-11-04T05:21:39.868Z,1.20
2022-11-04T05:24:08.762Z,1.30
2022-11-04T05:29:08.016Z,0.90
2022-11-04T05:31:37.301Z,1.00
2022-11-04T05:34:06.792Z,1.70
2022-11-04T05:36:35.672Z,1.20
2022-11-04T05:39:05.568Z,1.30
2022-11-04T05:41:35.401Z,1.00
2022-11-04T05:44:05.306Z,1.10
2022-11-04T05:46:34.163Z,1.00
2022-11-04T05:49:03.305Z,1.00
2022-11-04T05:51:32.494Z,1.40
2022-11-04T05:54:02.212Z,1.30
2022-11-04T05:56:31.009Z,1.10
2022-11-04T05:58:59.803Z,0.70
2022-11-04T06:01:37.605Z,1.20
2022-11-04T06:04:07.721Z,1.20
2022-11-04T06:06:37.380Z,1.00
2022-11-04T06:09:06.285Z,1.10
2022-11-04T06:11:35.629Z,1.00
2022-11-04T06:14:05.041Z,1.40
2022-11-04T06:16:33.886Z,0.70
2022-11-04T06:19:07.581Z,1.40
2022-11-04T06:21:39.662Z,1.20
2022-11-04T06:24:08.642Z,1.60
2022-11-04T06:26:40.086Z,1.40
2022-11-04T06:29:10.234Z,1.10
2022-11-04T06:31:39.193Z,1.00
2022-11-04T06:34:08.131Z,1.20
2022-11-04T06:36:37.028Z,1.10
2022-11-04T06:39:06.153Z,1.10
2022-11-04T06:41:35.198Z,1.10
2022-11-04T06:44:08.216Z,1.20
2022-11-04T06:46:43.921Z,0.90
2022-11-04T06:49:21.029Z,1.10
2022-11-04T06:51:50.550Z,1.10
2022-11-04T06:54:19.670Z,1.00
2022-11-04T06:56:49.592Z,1.20
2022-11-04T06:59:20.702Z,1.70
2022-11-04T07:01:51.423Z,1.30
2022-11-04T07:04:20.357Z,1.20
2022-11-04T07:06:49.312Z,1.10
2022-11-04T07:11:47.869Z,1.00
2022-11-04T07:14:16.706Z,1.20
2022-11-04T07:16:45.482Z,1.10
2022-11-04T07:19:14.309Z,1.10
2022-11-04T07:21:43.187Z,1.30
2022-11-04T07:24:11.970Z,1.20
2022-11-04T07:26:43.409Z,1.30
2022-11-04T07:29:12.421Z,0.90
2022-11-04T07:34:09.884Z,1.20
2022-11-04T07:36:38.723Z,1.10
2022-11-04T07:39:07.745Z,1.50
2022-11-04T07:44:05.996Z,1.40
2022-11-04T07:46:35.044Z,1.30
2022-11-04T07:49:04.546Z,1.20
2022-11-04T07:51:33.485Z,1.20
2022-11-04T07:56:31.124Z,1.00
2022-11-04T08:01:28.950Z,2.00
2022-11-04T08:03:59.526Z,2.00
2022-11-04T08:06:28.501Z,46.50
2022-11-04T08:11:28.889Z,32.40
2022-11-04T08:13:57.890Z,21.20
2022-11-04T08:16:31.444Z,17.30
2022-11-04T08:19:03.037Z,21.10
2022-11-04T08:21:34.052Z,16.50
2022-11-04T08:24:04.733Z,28.00
2022-11-04T08:26:33.829Z,22.20
2022-11-04T08:29:09.884Z,9.30
2022-11-04T08:31:38.819Z,8.50
2022-11-04T08:34:08.955Z,3.90
2022-11-04T08:36:41.295Z,4.20
2022-11-04T08:39:11.776Z,7.90
2022-11-04T08:41:45.670Z,10.40
2022-11-04T08:44:14.686Z,37.20
2022-11-04T08:46:46.093Z,7.70
2022-11-04T08:49:20.706Z,14.00
2022-11-04T08:51:56.791Z,1.80
2022-11-04T08:54:26.888Z,1.70
2022-11-04T08:56:56.324Z,1.80
2022-11-04T08:59:25.636Z,1.20
2022-11-04T09:01:55.167Z,1.20
2022-11-04T09:04:24.516Z,9.30
2022-11-04T09:06:53.529Z,16.90
2022-11-04T09:09:22.573Z,4.90
2022-11-04T09:11:51.538Z,3.40
2022-11-04T09:14:21.145Z,2.90
2022-11-04T09:16:50.004Z,2.20
2022-11-04T09:21:47.380Z,1.50
2022-11-04T09:26:45.245Z,0.90
2022-11-04T09:29:14.050Z,1.10
2022-11-04T09:31:43.757Z,1.00
2022-11-04T09:34:12.533Z,1.30
2022-11-04T09:39:11.021Z,3.50
2022-11-04T09:41:48.210Z,2.70
2022-11-04T09:44:24.254Z,2.30
2022-11-04T09:46:58.283Z,2.70
2022-11-04T09:49:30.682Z,1.60
2022-11-04T09:52:02.269Z,3.40
2022-11-04T09:54:43.109Z,1.60
2022-11-04T09:57:20.819Z,2.40
2022-11-04T09:59:50.209Z,7.60
2022-11-04T10:02:57.418Z,32.60
2022-11-04T10:05:32.931Z,3.30
2022-11-04T10:08:43.828Z,1.80
2022-11-04T10:11:32.032Z,1.50
2022-11-04T10:14:11.030Z,1.20
2022-11-04T10:16:45.857Z,1.00
2022-11-04T10:19:17.722Z,0.90
2022-11-04T10:22:19.327Z,1.00
2022-11-04T10:25:10.376Z,0.80
2022-11-04T10:27:46.328Z,0.90
2022-11-04T10:30:26.367Z,1.00
2022-11-04T10:33:14.322Z,1.10
2022-11-04T10:35:57.559Z,1.20
2022-11-04T10:38:47.229Z,0.70
2022-11-04T10:41:26.813Z,0.60
2022-11-04T10:44:04.038Z,1.00
2022-11-04T10:46:47.460Z,0.90
2022-11-04T10:50:14.445Z,0.90
2022-11-04T10:52:40.560Z,0.70
2022-11-04T10:55:32.285Z,0.90
2022-11-04T10:58:01.549Z,1.10
2022-11-04T11:00:42.228Z,1.20
2022-11-04T11:03:34.952Z,1.10
2022-11-04T11:06:26.529Z,1.30
2022-11-04T11:08:59.652Z,1.30
2022-11-04T11:11:39.616Z,0.90
2022-11-04T11:14:30.861Z,1.40
2022-11-04T11:17:21.301Z,1.20
2022-11-04T11:20:00.111Z,0.90
2022-11-04T11:22:32.550Z,1.20
2022-11-04T11:25:24.653Z,1.10
2022-11-04T11:30:33.024Z,0.90
2022-11-04T11:33:05.818Z,0.70
2022-11-04T11:35:42.613Z,0.70
2022-11-04T11:38:33.646Z,2.60
2022-11-04T11:41:24.731Z,1.00
2022-11-04T11:46:34.855Z,0.80
2022-11-04T11:49:06.721Z,0.90
2022-11-04T11:51:38.943Z,0.90
2022-11-04T11:54:16.603Z,1.40
2022-11-04T11:57:13.755Z,0.80
2022-11-04T12:03:24.171Z,0.90
2022-11-04T12:09:18.900Z,2.00
2022-11-04T12:11:56.331Z,1.80
2022-11-04T12:14:33.549Z,0.90
2022-11-04T12:17:25.907Z,2.10
2022-11-04T12:20:16.281Z,3.40
2022-11-04T12:23:06.888Z,1.20
2022-11-04T12:26:14.450Z,2.50
2022-11-04T12:29:00.056Z,6.60
2022-11-04T12:32:10.728Z,3.40
2022-11-04T12:34:58.072Z,2.20
2022-11-04T12:38:04.667Z,0.90
2022-11-04T12:41:18.680Z,1.10
2022-11-04T12:43:52.022Z,1.00
2022-11-04T12:46:30.402Z,0.70
2022-11-04T12:51:42.705Z,1.00
2022-11-04T12:54:43.354Z,1.10
2022-11-04T12:57:43.548Z,1.70
2022-11-04T13:00:15.775Z,0.80
2022-11-04T13:03:15.609Z,1.10
2022-11-04T13:06:05.842Z,1.50
2022-11-04T13:08:59.030Z,7.10
2022-11-04T13:11:35.131Z,24.10
2022-11-04T13:14:16.711Z,3.40
2022-11-04T13:16:50.281Z,1.40
2022-11-04T13:19:32.060Z,2.00
2022-11-04T13:22:10.310Z,5.50
2022-11-04T13:24:47.881Z,4.50
2022-11-04T13:27:24.224Z,1.90
2022-11-04T13:30:22.516Z,2.90
2022-11-04T13:33:01.525Z,5.20
2022-11-04T13:35:53.417Z,12.30
2022-11-04T13:41:21.261Z,4.30
2022-11-04T13:44:01.900Z,1.50
2022-11-04T13:46:34.961Z,6.10
2022-11-04T13:49:12.923Z,2.20
2022-11-04T13:52:01.666Z,2.10
2022-11-04T13:54:44.437Z,2.00
2022-11-04T13:57:19.981Z,0.80
2022-11-04T14:00:07.781Z,4.00
2022-11-04T14:03:00.645Z,5.50
2022-11-04T14:05:30.046Z,1.70
2022-11-04T14:08:02.073Z,1.00
2022-11-04T14:10:38.731Z,0.70
2022-11-04T14:13:37.966Z,0.90
2022-11-04T14:16:25.356Z,0.60
2022-11-04T14:18:55.061Z,0.50
2022-11-04T14:21:28.158Z,0.60
2022-11-04T14:24:02.497Z,1.20
2022-11-04T14:29:23.032Z,1.40
2022-11-04T14:32:01.304Z,1.10
2022-11-04T14:34:40.106Z,0.60
2022-11-04T14:37:23.658Z,1.50
2022-11-04T14:40:06.066Z,5.20
2022-11-04T14:42:44.183Z,5.10
2022-11-04T14:45:20.637Z,4.10
2022-11-04T14:48:00.703Z,26.10
2022-11-04T14:50:29.563Z,9.30
2022-11-04T14:53:02.690Z,2.80
2022-11-04T14:55:33.256Z,1.90
2022-11-04T14:58:25.097Z,1.60
2022-11-04T15:00:59.543Z,9.30
2022-11-04T15:04:10.104Z,3.20
2022-11-04T15:06:40.668Z,18.60
2022-11-04T15:09:23.460Z,22.30
2022-11-04T15:12:26.626Z,19.80
2022-11-04T15:14:57.064Z,23.50
2022-11-04T15:17:30.241Z,8.90
2022-11-04T15:20:02.613Z,4.50
2022-11-04T15:22:31.589Z,4.40
2022-11-04T15:25:06.309Z,2.90
2022-11-04T15:27:35.345Z,1.90
2022-11-04T15:30:05.786Z,1.60
2022-11-04T15:32:34.619Z,1.80
2022-11-04T15:35:03.761Z,4.70
2022-11-04T15:37:34.049Z,7.20
2022-11-04T15:40:03.092Z,4.70
2022-11-04T15:42:43.509Z,8.40
2022-11-04T15:45:28.163Z,2.60
2022-11-04T15:48:24.307Z,8.50
2022-11-04T15:51:19.237Z,2.60
2022-11-04T15:53:53.177Z,2.20
2022-11-04T15:56:27.103Z,2.20
2022-11-04T15:58:58.576Z,3.20
2022-11-04T16:01:29.591Z,1.10
2022-11-04T16:04:00.915Z,0.90
2022-11-04T16:06:35.992Z,1.10
2022-11-04T16:09:11.800Z,1.50
2022-11-04T16:11:41.219Z,0.90
2022-11-04T16:14:29.636Z,1.40
2022-11-04T16:16:58.421Z,1.50
2022-11-04T16:19:30.479Z,1.50
2022-11-04T16:22:12.159Z,1.40
2022-11-04T16:24:43.265Z,1.80
2022-11-04T16:27:14.460Z,1.20
2022-11-04T16:29:54.041Z,0.90
2022-11-04T16:32:28.557Z,0.60
2022-11-04T16:37:32.133Z,0.50
2022-11-04T16:40:01.102Z,0.40
2022-11-04T16:42:30.006Z,0.60
2022-11-04T16:45:02.938Z,0.60
2022-11-04T16:47:39.362Z,0.50
2022-11-04T16:50:16.060Z,0.50
2022-11-04T16:52:45.443Z,0.80
2022-11-04T16:55:16.073Z,0.70
2022-11-04T16:57:46.942Z,0.50
2022-11-04T17:00:25.252Z,0.70
2022-11-04T17:02:54.191Z,0.30
2022-11-04T17:05:23.250Z,0.40
2022-11-04T17:07:55.602Z,0.40
2022-11-04T17:10:29.381Z,0.50
2022-11-04T17:12:58.103Z,0.70
2022-11-04T17:15:27.035Z,0.30
2022-11-04T17:17:56.080Z,12.30
2022-11-04T17:20:26.090Z,37.60
2022-11-04T17:22:59.139Z,25.10
2022-11-04T17:25:30.449Z,10.80
2022-11-04T17:27:59.348Z,4.90
2022-11-04T17:30:28.254Z,2.10
2022-11-04T17:33:00.582Z,2.00
2022-11-04T17:35:31.070Z,1.90
2022-11-04T17:37:59.919Z,3.90
2022-11-04T17:43:16.420Z,2.60
2022-11-04T17:45:46.044Z,4.20
2022-11-04T17:48:15.869Z,3.90
2022-11-04T17:50:44.740Z,2.70
2022-11-04T17:53:16.693Z,2.80
2022-11-04T17:55:45.711Z,1.80
2022-11-04T17:58:14.469Z,1.20
2022-11-04T18:03:12.773Z,0.90
2022-11-04T18:05:41.850Z,0.80
2022-11-04T18:08:11.118Z,0.80
2022-11-04T18:10:43.108Z,0.60
2022-11-04T18:13:12.361Z,0.90
2022-11-04T18:15:41.500Z,1.00
2022-11-04T18:20:41.781Z,0.70
2022-11-04T18:26:03.452Z,0.80
2022-11-04T18:28:32.501Z,0.70
2022-11-04T18:31:01.353Z,2.30
2022-11-04T18:33:30.285Z,1.20
2022-11-04T18:36:03.993Z,1.20
2022-11-04T18:38:33.653Z,1.10
2022-11-04T18:41:05.565Z,0.90
2022-11-04T18:43:34.361Z,0.80
2022-11-04T18:48:41.063Z,0.80
2022-11-04T18:51:13.009Z,1.40
2022-11-04T18:53:41.844Z,2.50
2022-11-04T18:58:42.388Z,0.80
2022-11-04T19:01:29.727Z,0.70
2022-11-04T19:03:59.733Z,0.90
2022-11-04T19:06:32.095Z,0.90
2022-11-04T19:09:32.097Z,0.90
2022-11-04T19:12:15.958Z,1.00
2022-11-04T19:14:45.192Z,0.70
2022-11-04T19:17:14.075Z,1.00
2022-11-04T19:22:13.409Z,0.60
2022-11-04T19:24:42.197Z,0.80
2022-11-04T19:29:42.696Z,0.80
2022-11-04T19:32:14.227Z,1.00
2022-11-04T19:34:44.004Z,0.90
2022-11-04T19:37:13.513Z,1.00
2022-11-04T19:39:42.422Z,1.00
2022-11-04T19:42:31.260Z,0.90
2022-11-04T19:45:20.413Z,0.80
2022-11-04T19:47:49.229Z,0.90
2022-11-04T19:50:18.654Z,0.70
2022-11-04T19:52:47.727Z,1.00
2022-11-04T19:55:16.606Z,0.90
2022-11-04T19:57:48.220Z,1.10
2022-11-04T20:00:17.178Z,0.80
2022-11-04T20:05:28.933Z,1.20
2022-11-04T20:08:03.172Z,0.90
2022-11-04T20:10:41.135Z,0.70
2022-11-04T20:13:35.440Z,0.90
2022-11-04T20:16:14.093Z,1.00
2022-11-04T20:18:43.610Z,0.80
2022-11-04T20:21:13.112Z,1.10
2022-11-04T20:23:42.659Z,1.10
2022-11-04T20:26:20.695Z,1.00
2022-11-04T20:28:50.375Z,1.30
2022-11-04T20:31:22.685Z,0.70
2022-11-04T20:33:53.362Z,0.80
2022-11-04T20:36:26.042Z,1.10
2022-11-04T20:39:06.246Z,1.10
2022-11-04T20:41:35.456Z,1.40
2022-11-04T20:44:04.611Z,0.80
2022-11-04T20:46:37.765Z,0.90
2022-11-04T20:49:07.296Z,1.00
2022-11-04T20:51:39.745Z,1.00
2022-11-04T20:54:09.424Z,0.90
2022-11-04T20:56:41.226Z,0.90
2022-11-04T20:59:25.398Z,0.90
2022-11-04T21:01:55.215Z,0.90
2022-11-04T21:04:24.358Z,1.00
2022-11-04T21:09:22.163Z,1.10
2022-11-04T21:11:54.194Z,1.00
2022-11-04T21:14:23.043Z,1.00
2022-11-04T21:16:52.048Z,1.30
2022-11-04T21:19:22.385Z,1.20
2022-11-04T21:24:21.049Z,1.10
2022-11-04T21:26:50.746Z,1.10
2022-11-04T21:29:20.764Z,1.40
2022-11-04T21:31:49.640Z,1.40
2022-11-04T21:34:18.533Z,1.40
2022-11-04T21:39:19.491Z,1.20
2022-11-04T21:44:19.998Z,1.20
2022-11-04T21:46:50.637Z,1.30
2022-11-04T21:49:19.494Z,1.00
2022-11-04T21:51:48.406Z,1.20
2022-11-04T21:54:17.302Z,1.20
2022-11-04T21:56:47.109Z,1.30
2022-11-04T21:59:19.057Z,1.10
2022-11-04T22:01:48.315Z,1.10
2022-11-04T22:04:17.331Z,1.50
2022-11-04T22:06:47.514Z,1.10
2022-11-04T22:09:16.237Z,1.00
2022-11-04T22:11:45.572Z,1.00
2022-11-04T22:14:14.369Z,1.30
2022-11-04T22:19:14.337Z,1.60
2022-11-04T22:21:46.643Z,1.30
2022-11-04T22:24:19.590Z,1.20
2022-11-04T22:29:28.196Z,1.30
2022-11-04T22:31:57.684Z,1.40
2022-11-04T22:34:32.742Z,1.30
2022-11-04T22:37:02.369Z,1.40
2022-11-04T22:39:32.386Z,2.30
2022-11-04T22:42:01.283Z,2.30
2022-11-04T22:46:59.063Z,2.10
2022-11-04T22:49:28.819Z,2.50
2022-11-04T22:51:57.859Z,2.60
2022-11-04T22:54:29.986Z,2.80
2022-11-04T22:56:58.911Z,2.80
2022-11-04T23:01:56.634Z,3.10
2022-11-04T23:06:54.236Z,2.80
2022-11-04T23:12:10.499Z,3.70
2022-11-04T23:14:39.858Z,3.30
2022-11-04T23:20:00.846Z,3.10
2022-11-04T23:22:51.124Z,3.10
2022-11-04T23:25:20.112Z,3.30
2022-11-04T23:28:11.047Z,3.30
2022-11-04T23:30:45.518Z,3.60
2022-11-04T23:33:15.898Z,3.50
2022-11-04T23:36:07.796Z,3.90
2022-11-04T23:38:46.433Z,3.80
2022-11-04T23:41:37.919Z,3.50
2022-11-04T23:44:26.937Z,3.70
2022-11-04T23:47:14.956Z,3.80
2022-11-04T23:50:03.501Z,3.80
2022-11-04T23:52:51.146Z,3.60
2022-11-04T23:55:38.267Z,4.10
2022-11-04T23:58:28.559Z,3.90
